sensor_id;sensor_type;location;lat;lon;timestamp;P1;durP1;ratioP1;P2;durP2;ratioP2
65202;SDS011;51788;45.124;38.966;2022-08-02T00:00:14;12.57;;;8.85;;
65202;SDS011;51788;45.124;38.966;2022-08-02T00:02:41;12.38;;;8.65;;
65202;SDS011;51788;45.124;38.966;2022-08-02T00:05:08;10.95;;;9.95;;
65202;SDS011;51788;45.124;38.966;2022-08-02T00:07:34;20.75;;;9.50;;
65202;SDS011;51788;45.124;38.966;2022-08-02T00:10:00;10.70;;;9.05;;
65202;SDS011;51788;45.124;38.966;2022-08-02T00:12:26;11.80;;;8.27;;
65202;SDS011;51788;45.124;38.966;2022-08-02T00:14:52;15.88;;;8.45;;
65202;SDS011;51788;45.124;38.966;2022-08-02T00:17:18;10.82;;;8.27;;
65202;SDS011;51788;45.124;38.966;2022-08-02T00:19:44;13.45;;;8.60;;
65202;SDS011;51788;45.124;38.966;2022-08-02T00:22:10;11.80;;;7.80;;
65202;SDS011;51788;45.124;38.966;2022-08-02T00:24:37;12.93;;;7.68;;
65202;SDS011;51788;45.124;38.966;2022-08-02T00:27:03;9.00;;;8.20;;
65202;SDS011;51788;45.124;38.966;2022-08-02T00:29:29;17.67;;;8.32;;
65202;SDS011;51788;45.124;38.966;2022-08-02T00:31:56;9.68;;;7.25;;
65202;SDS011;51788;45.124;38.966;2022-08-02T00:34:22;10.10;;;7.30;;
65202;SDS011;51788;45.124;38.966;2022-08-02T00:36:49;10.48;;;6.97;;
65202;SDS011;51788;45.124;38.966;2022-08-02T00:39:15;9.65;;;7.32;;
65202;SDS011;51788;45.124;38.966;2022-08-02T00:41:45;8.98;;;5.93;;
65202;SDS011;51788;45.124;38.966;2022-08-02T00:44:13;6.30;;;5.57;;
65202;SDS011;51788;45.124;38.966;2022-08-02T00:46:40;6.55;;;5.95;;
65202;SDS011;51788;45.124;38.966;2022-08-02T00:49:06;8.05;;;5.80;;
65202;SDS011;51788;45.124;38.966;2022-08-02T00:51:32;8.15;;;5.38;;
65202;SDS011;51788;45.124;38.966;2022-08-02T00:53:58;10.02;;;5.50;;
65202;SDS011;51788;45.124;38.966;2022-08-02T00:56:24;6.28;;;5.40;;
65202;SDS011;51788;45.124;38.966;2022-08-02T00:58:50;7.18;;;6.00;;
65202;SDS011;51788;45.124;38.966;2022-08-02T01:01:16;5.90;;;4.95;;
65202;SDS011;51788;45.124;38.966;2022-08-02T01:03:42;5.47;;;4.97;;
65202;SDS011;51788;45.124;38.966;2022-08-02T01:06:09;5.80;;;5.18;;
65202;SDS011;51788;45.124;38.966;2022-08-02T01:08:36;19.83;;;5.70;;
65202;SDS011;51788;45.124;38.966;2022-08-02T01:11:03;5.43;;;4.88;;
65202;SDS011;51788;45.124;38.966;2022-08-02T01:13:29;5.30;;;4.80;;
65202;SDS011;51788;45.124;38.966;2022-08-02T01:15:58;5.50;;;5.00;;
65202;SDS011;51788;45.124;38.966;2022-08-02T01:18:33;7.82;;;5.13;;
65202;SDS011;51788;45.124;38.966;2022-08-02T01:30:01;5.10;;;4.70;;
65202;SDS011;51788;45.124;38.966;2022-08-02T01:32:30;4.47;;;4.18;;
65202;SDS011;51788;45.124;38.966;2022-08-02T01:35:02;4.38;;;4.15;;
65202;SDS011;51788;45.124;38.966;2022-08-02T01:37:37;4.93;;;4.45;;
65202;SDS011;51788;45.124;38.966;2022-08-02T01:40:20;5.47;;;4.80;;
65202;SDS011;51788;45.124;38.966;2022-08-02T01:42:50;4.88;;;4.47;;
65202;SDS011;51788;45.124;38.966;2022-08-02T01:45:19;4.93;;;4.50;;
65202;SDS011;51788;45.124;38.966;2022-08-02T01:47:49;4.88;;;4.57;;
65202;SDS011;51788;45.124;38.966;2022-08-02T01:50:16;5.25;;;4.85;;
65202;SDS011;51788;45.124;38.966;2022-08-02T01:52:47;8.27;;;4.70;;
65202;SDS011;51788;45.124;38.966;2022-08-02T01:55:26;5.07;;;4.68;;
65202;SDS011;51788;45.124;38.966;2022-08-02T01:58:00;4.90;;;4.50;;
65202;SDS011;51788;45.124;38.966;2022-08-02T02:00:30;4.95;;;4.63;;
65202;SDS011;51788;45.124;38.966;2022-08-02T02:02:58;12.48;;;4.75;;
65202;SDS011;51788;45.124;38.966;2022-08-02T02:05:27;6.82;;;4.65;;
65202;SDS011;51788;45.124;38.966;2022-08-02T02:07:56;5.93;;;5.00;;
65202;SDS011;51788;45.124;38.966;2022-08-02T02:10:28;12.45;;;4.78;;
65202;SDS011;51788;45.124;38.966;2022-08-02T02:12:57;5.03;;;4.72;;
65202;SDS011;51788;45.124;38.966;2022-08-02T02:15:27;5.45;;;5.00;;
65202;SDS011;51788;45.124;38.966;2022-08-02T02:17:55;5.68;;;4.50;;
65202;SDS011;51788;45.124;38.966;2022-08-02T02:20:22;9.95;;;4.97;;
65202;SDS011;51788;45.124;38.966;2022-08-02T02:22:49;5.63;;;5.20;;
65202;SDS011;51788;45.124;38.966;2022-08-02T02:25:19;5.13;;;4.72;;
65202;SDS011;51788;45.124;38.966;2022-08-02T02:27:53;6.85;;;5.10;;
65202;SDS011;51788;45.124;38.966;2022-08-02T02:30:25;7.30;;;5.00;;
65202;SDS011;51788;45.124;38.966;2022-08-02T02:32:52;8.40;;;5.45;;
65202;SDS011;51788;45.124;38.966;2022-08-02T02:37:53;5.25;;;4.63;;
65202;SDS011;51788;45.124;38.966;2022-08-02T02:40:20;11.52;;;5.00;;
65202;SDS011;51788;45.124;38.966;2022-08-02T02:42:47;7.32;;;5.00;;
65202;SDS011;51788;45.124;38.966;2022-08-02T02:45:15;8.98;;;4.75;;
65202;SDS011;51788;45.124;38.966;2022-08-02T02:47:43;6.72;;;4.82;;
65202;SDS011;51788;45.124;38.966;2022-08-02T02:50:11;5.60;;;4.93;;
65202;SDS011;51788;45.124;38.966;2022-08-02T02:52:38;5.80;;;5.25;;
65202;SDS011;51788;45.124;38.966;2022-08-02T02:55:05;5.70;;;4.90;;
65202;SDS011;51788;45.124;38.966;2022-08-02T02:57:33;5.05;;;4.50;;
65202;SDS011;51788;45.124;38.966;2022-08-02T03:00:02;5.85;;;5.35;;
65202;SDS011;51788;45.124;38.966;2022-08-02T03:02:33;4.80;;;4.40;;
65202;SDS011;51788;45.124;38.966;2022-08-02T03:05:02;4.90;;;4.50;;
65202;SDS011;51788;45.124;38.966;2022-08-02T03:07:30;4.70;;;4.25;;
65202;SDS011;51788;45.124;38.966;2022-08-02T03:09:57;5.82;;;4.55;;
65202;SDS011;51788;45.124;38.966;2022-08-02T03:12:24;4.70;;;4.40;;
65202;SDS011;51788;45.124;38.966;2022-08-02T03:14:50;5.45;;;4.45;;
65202;SDS011;51788;45.124;38.966;2022-08-02T03:17:16;4.90;;;4.50;;
65202;SDS011;51788;45.124;38.966;2022-08-02T03:19:43;4.75;;;4.30;;
65202;SDS011;51788;45.124;38.966;2022-08-02T03:22:09;9.95;;;4.90;;
65202;SDS011;51788;45.124;38.966;2022-08-02T03:24:36;5.20;;;4.80;;
65202;SDS011;51788;45.124;38.966;2022-08-02T03:27:02;9.05;;;4.57;;
65202;SDS011;51788;45.124;38.966;2022-08-02T03:29:28;4.70;;;4.32;;
65202;SDS011;51788;45.124;38.966;2022-08-02T03:31:54;6.60;;;4.70;;
65202;SDS011;51788;45.124;38.966;2022-08-02T03:34:21;5.43;;;4.93;;
65202;SDS011;51788;45.124;38.966;2022-08-02T03:36:49;5.38;;;4.53;;
65202;SDS011;51788;45.124;38.966;2022-08-02T03:39:19;5.20;;;4.80;;
65202;SDS011;51788;45.124;38.966;2022-08-02T03:41:46;5.60;;;4.75;;
65202;SDS011;51788;45.124;38.966;2022-08-02T03:44:13;5.25;;;4.65;;
65202;SDS011;51788;45.124;38.966;2022-08-02T03:46:41;6.63;;;5.07;;
65202;SDS011;51788;45.124;38.966;2022-08-02T03:49:07;4.25;;;3.95;;
65202;SDS011;51788;45.124;38.966;2022-08-02T03:51:35;6.78;;;4.72;;
65202;SDS011;51788;45.124;38.966;2022-08-02T03:54:01;7.65;;;5.00;;
65202;SDS011;51788;45.124;38.966;2022-08-02T03:56:28;5.82;;;4.35;;
65202;SDS011;51788;45.124;38.966;2022-08-02T03:59:05;5.45;;;4.30;;
65202;SDS011;51788;45.124;38.966;2022-08-02T04:01:32;5.03;;;4.25;;
65202;SDS011;51788;45.124;38.966;2022-08-02T04:03:58;13.10;;;4.88;;
65202;SDS011;51788;45.124;38.966;2022-08-02T04:06:24;4.70;;;4.30;;
65202;SDS011;51788;45.124;38.966;2022-08-02T04:08:50;4.95;;;4.03;;
65202;SDS011;51788;45.124;38.966;2022-08-02T04:11:17;5.22;;;4.47;;
65202;SDS011;51788;45.124;38.966;2022-08-02T04:13:55;4.82;;;4.40;;
65202;SDS011;51788;45.124;38.966;2022-08-02T04:16:39;9.40;;;4.65;;
65202;SDS011;51788;45.124;38.966;2022-08-02T04:19:09;10.13;;;4.35;;
65202;SDS011;51788;45.124;38.966;2022-08-02T04:21:40;6.57;;;4.70;;
65202;SDS011;51788;45.124;38.966;2022-08-02T04:24:08;4.97;;;4.47;;
65202;SDS011;51788;45.124;38.966;2022-08-02T04:26:35;8.43;;;5.05;;
65202;SDS011;51788;45.124;38.966;2022-08-02T04:29:03;4.93;;;4.43;;
65202;SDS011;51788;45.124;38.966;2022-08-02T04:31:30;4.45;;;4.05;;
65202;SDS011;51788;45.124;38.966;2022-08-02T04:33:56;6.22;;;3.55;;
65202;SDS011;51788;45.124;38.966;2022-08-02T04:36:23;6.28;;;3.78;;
65202;SDS011;51788;45.124;38.966;2022-08-02T04:38:49;5.03;;;4.25;;
65202;SDS011;51788;45.124;38.966;2022-08-02T04:41:15;6.68;;;3.75;;
65202;SDS011;51788;45.124;38.966;2022-08-02T04:43:41;4.63;;;4.32;;
65202;SDS011;51788;45.124;38.966;2022-08-02T04:46:07;4.10;;;3.60;;
65202;SDS011;51788;45.124;38.966;2022-08-02T04:48:33;5.20;;;3.95;;
65202;SDS011;51788;45.124;38.966;2022-08-02T04:50:59;4.35;;;3.95;;
65202;SDS011;51788;45.124;38.966;2022-08-02T04:53:25;8.43;;;5.13;;
65202;SDS011;51788;45.124;38.966;2022-08-02T04:55:51;10.45;;;4.35;;
65202;SDS011;51788;45.124;38.966;2022-08-02T04:58:17;5.53;;;4.93;;
65202;SDS011;51788;45.124;38.966;2022-08-02T05:00:43;6.38;;;4.57;;
65202;SDS011;51788;45.124;38.966;2022-08-02T05:03:09;7.90;;;3.85;;
65202;SDS011;51788;45.124;38.966;2022-08-02T05:05:37;4.18;;;3.88;;
65202;SDS011;51788;45.124;38.966;2022-08-02T05:08:03;3.70;;;3.40;;
65202;SDS011;51788;45.124;38.966;2022-08-02T05:10:29;5.68;;;3.78;;
65202;SDS011;51788;45.124;38.966;2022-08-02T05:12:55;4.50;;;3.95;;
65202;SDS011;51788;45.124;38.966;2022-08-02T05:15:21;4.20;;;3.47;;
65202;SDS011;51788;45.124;38.966;2022-08-02T05:17:47;8.10;;;4.78;;
65202;SDS011;51788;45.124;38.966;2022-08-02T05:20:18;5.68;;;4.00;;
65202;SDS011;51788;45.124;38.966;2022-08-02T05:22:45;4.70;;;4.30;;
65202;SDS011;51788;45.124;38.966;2022-08-02T05:25:11;19.98;;;4.18;;
65202;SDS011;51788;45.124;38.966;2022-08-02T05:27:38;7.30;;;4.90;;
65202;SDS011;51788;45.124;38.966;2022-08-02T05:30:04;5.53;;;4.53;;
65202;SDS011;51788;45.124;38.966;2022-08-02T05:32:31;4.97;;;4.45;;
65202;SDS011;51788;45.124;38.966;2022-08-02T05:34:59;5.18;;;4.78;;
65202;SDS011;51788;45.124;38.966;2022-08-02T05:37:26;7.05;;;4.75;;
65202;SDS011;51788;45.124;38.966;2022-08-02T05:39:52;8.50;;;4.85;;
65202;SDS011;51788;45.124;38.966;2022-08-02T05:42:18;7.22;;;4.28;;
65202;SDS011;51788;45.124;38.966;2022-08-02T05:44:44;4.88;;;3.88;;
65202;SDS011;51788;45.124;38.966;2022-08-02T05:47:10;8.20;;;3.90;;
65202;SDS011;51788;45.124;38.966;2022-08-02T05:49:35;4.38;;;3.60;;
65202;SDS011;51788;45.124;38.966;2022-08-02T05:52:14;5.72;;;3.30;;
65202;SDS011;51788;45.124;38.966;2022-08-02T05:54:50;6.35;;;3.60;;
65202;SDS011;51788;45.124;38.966;2022-08-02T05:57:40;4.40;;;4.00;;
65202;SDS011;51788;45.124;38.966;2022-08-02T06:00:11;10.52;;;4.20;;
65202;SDS011;51788;45.124;38.966;2022-08-02T06:05:16;5.55;;;4.07;;
65202;SDS011;51788;45.124;38.966;2022-08-02T06:07:46;4.95;;;4.18;;
65202;SDS011;51788;45.124;38.966;2022-08-02T06:10:14;8.80;;;3.63;;
65202;SDS011;51788;45.124;38.966;2022-08-02T06:13:28;4.00;;;3.70;;
65202;SDS011;51788;45.124;38.966;2022-08-02T06:15:36;3.65;;;3.45;;
65202;SDS011;51788;45.124;38.966;2022-08-02T06:18:04;3.67;;;3.30;;
65202;SDS011;51788;45.124;38.966;2022-08-02T06:20:31;4.97;;;3.83;;
65202;SDS011;51788;45.124;38.966;2022-08-02T06:23:03;3.97;;;3.65;;
65202;SDS011;51788;45.124;38.966;2022-08-02T06:28:03;3.53;;;3.30;;
65202;SDS011;51788;45.124;38.966;2022-08-02T06:30:31;4.63;;;3.83;;
65202;SDS011;51788;45.124;38.966;2022-08-02T06:32:57;3.47;;;3.28;;
65202;SDS011;51788;45.124;38.966;2022-08-02T06:38:19;4.65;;;3.72;;
65202;SDS011;51788;45.124;38.966;2022-08-02T06:40:54;7.25;;;3.50;;
65202;SDS011;51788;45.124;38.966;2022-08-02T06:45:57;4.07;;;3.67;;
65202;SDS011;51788;45.124;38.966;2022-08-02T06:48:23;8.40;;;4.10;;
65202;SDS011;51788;45.124;38.966;2022-08-02T06:50:49;6.03;;;3.50;;
65202;SDS011;51788;45.124;38.966;2022-08-02T06:53:15;3.53;;;3.22;;
65202;SDS011;51788;45.124;38.966;2022-08-02T06:55:41;8.50;;;3.75;;
65202;SDS011;51788;45.124;38.966;2022-08-02T06:58:07;6.63;;;3.50;;
65202;SDS011;51788;45.124;38.966;2022-08-02T07:00:33;4.43;;;3.20;;
65202;SDS011;51788;45.124;38.966;2022-08-02T07:02:59;5.15;;;3.80;;
65202;SDS011;51788;45.124;38.966;2022-08-02T07:05:25;4.82;;;3.58;;
65202;SDS011;51788;45.124;38.966;2022-08-02T07:07:51;5.07;;;3.75;;
65202;SDS011;51788;45.124;38.966;2022-08-02T07:10:17;12.75;;;3.55;;
65202;SDS011;51788;45.124;38.966;2022-08-02T07:12:43;3.58;;;3.08;;
65202;SDS011;51788;45.124;38.966;2022-08-02T07:15:09;3.55;;;3.33;;
65202;SDS011;51788;45.124;38.966;2022-08-02T07:17:36;4.43;;;3.38;;
65202;SDS011;51788;45.124;38.966;2022-08-02T07:20:03;4.05;;;3.30;;
65202;SDS011;51788;45.124;38.966;2022-08-02T07:22:30;3.83;;;3.50;;
65202;SDS011;51788;45.124;38.966;2022-08-02T07:24:56;8.70;;;3.38;;
65202;SDS011;51788;45.124;38.966;2022-08-02T07:27:23;3.95;;;3.60;;
65202;SDS011;51788;45.124;38.966;2022-08-02T07:29:50;6.40;;;3.58;;
65202;SDS011;51788;45.124;38.966;2022-08-02T07:32:17;4.10;;;3.53;;
65202;SDS011;51788;45.124;38.966;2022-08-02T07:34:45;7.35;;;3.45;;
65202;SDS011;51788;45.124;38.966;2022-08-02T07:37:11;7.65;;;3.00;;
65202;SDS011;51788;45.124;38.966;2022-08-02T07:39:38;3.92;;;3.55;;
65202;SDS011;51788;45.124;38.966;2022-08-02T07:42:04;4.32;;;3.00;;
65202;SDS011;51788;45.124;38.966;2022-08-02T07:44:30;4.10;;;3.30;;
65202;SDS011;51788;45.124;38.966;2022-08-02T07:47:02;4.57;;;3.65;;
65202;SDS011;51788;45.124;38.966;2022-08-02T07:49:29;4.03;;;3.72;;
65202;SDS011;51788;45.124;38.966;2022-08-02T07:51:55;5.97;;;3.33;;
65202;SDS011;51788;45.124;38.966;2022-08-02T07:54:22;4.47;;;3.28;;
65202;SDS011;51788;45.124;38.966;2022-08-02T07:56:48;10.77;;;4.10;;
65202;SDS011;51788;45.124;38.966;2022-08-02T07:59:14;23.00;;;3.47;;
65202;SDS011;51788;45.124;38.966;2022-08-02T08:01:40;4.57;;;3.65;;
65202;SDS011;51788;45.124;38.966;2022-08-02T08:04:06;3.92;;;3.55;;
65202;SDS011;51788;45.124;38.966;2022-08-02T08:06:32;5.05;;;3.42;;
65202;SDS011;51788;45.124;38.966;2022-08-02T08:08:58;4.40;;;3.80;;
65202;SDS011;51788;45.124;38.966;2022-08-02T08:11:24;5.85;;;4.00;;
65202;SDS011;51788;45.124;38.966;2022-08-02T08:13:51;4.18;;;3.72;;
65202;SDS011;51788;45.124;38.966;2022-08-02T08:16:17;5.75;;;3.58;;
65202;SDS011;51788;45.124;38.966;2022-08-02T08:18:43;10.07;;;3.83;;
65202;SDS011;51788;45.124;38.966;2022-08-02T08:21:09;4.82;;;3.72;;
65202;SDS011;51788;45.124;38.966;2022-08-02T08:23:35;14.70;;;3.88;;
65202;SDS011;51788;45.124;38.966;2022-08-02T08:26:02;4.32;;;3.88;;
65202;SDS011;51788;45.124;38.966;2022-08-02T08:28:28;6.80;;;3.83;;
65202;SDS011;51788;45.124;38.966;2022-08-02T08:30:54;5.45;;;3.83;;
65202;SDS011;51788;45.124;38.966;2022-08-02T08:33:20;11.10;;;4.45;;
65202;SDS011;51788;45.124;38.966;2022-08-02T08:35:46;8.52;;;5.43;;
65202;SDS011;51788;45.124;38.966;2022-08-02T08:38:13;4.32;;;3.72;;
65202;SDS011;51788;45.124;38.966;2022-08-02T08:40:40;5.25;;;3.70;;
65202;SDS011;51788;45.124;38.966;2022-08-02T08:43:06;9.55;;;4.38;;
65202;SDS011;51788;45.124;38.966;2022-08-02T08:45:33;8.00;;;3.90;;
65202;SDS011;51788;45.124;38.966;2022-08-02T08:47:59;3.38;;;3.17;;
65202;SDS011;51788;45.124;38.966;2022-08-02T08:50:31;6.90;;;3.17;;
65202;SDS011;51788;45.124;38.966;2022-08-02T08:53:04;4.30;;;3.30;;
65202;SDS011;51788;45.124;38.966;2022-08-02T08:55:32;23.00;;;3.78;;
65202;SDS011;51788;45.124;38.966;2022-08-02T08:58:00;23.70;;;3.80;;
65202;SDS011;51788;45.124;38.966;2022-08-02T09:00:32;3.83;;;3.03;;
65202;SDS011;51788;45.124;38.966;2022-08-02T09:03:03;3.38;;;3.17;;
65202;SDS011;51788;45.124;38.966;2022-08-02T09:05:30;4.65;;;3.25;;
65202;SDS011;51788;45.124;38.966;2022-08-02T09:07:59;10.93;;;5.28;;
65202;SDS011;51788;45.124;38.966;2022-08-02T09:10:39;4.80;;;3.03;;
65202;SDS011;51788;45.124;38.966;2022-08-02T09:13:06;4.93;;;3.50;;
65202;SDS011;51788;45.124;38.966;2022-08-02T09:15:54;3.55;;;3.35;;
65202;SDS011;51788;45.124;38.966;2022-08-02T09:21:14;16.73;;;4.03;;
65202;SDS011;51788;45.124;38.966;2022-08-02T09:23:42;7.72;;;3.80;;
65202;SDS011;51788;45.124;38.966;2022-08-02T09:26:13;3.78;;;3.47;;
65202;SDS011;51788;45.124;38.966;2022-08-02T09:28:43;6.78;;;3.50;;
65202;SDS011;51788;45.124;38.966;2022-08-02T09:31:15;10.48;;;3.40;;
65202;SDS011;51788;45.124;38.966;2022-08-02T09:33:52;7.82;;;3.47;;
65202;SDS011;51788;45.124;38.966;2022-08-02T09:36:20;5.22;;;2.97;;
65202;SDS011;51788;45.124;38.966;2022-08-02T09:38:52;5.68;;;3.10;;
65202;SDS011;51788;45.124;38.966;2022-08-02T09:41:25;3.50;;;3.30;;
65202;SDS011;51788;45.124;38.966;2022-08-02T09:43:55;5.18;;;3.72;;
65202;SDS011;51788;45.124;38.966;2022-08-02T09:46:23;5.70;;;3.92;;
65202;SDS011;51788;45.124;38.966;2022-08-02T09:51:28;5.93;;;3.30;;
65202;SDS011;51788;45.124;38.966;2022-08-02T09:53:56;3.50;;;3.30;;
65202;SDS011;51788;45.124;38.966;2022-08-02T09:56:24;5.22;;;3.38;;
65202;SDS011;51788;45.124;38.966;2022-08-02T09:58:51;3.47;;;3.05;;
65202;SDS011;51788;45.124;38.966;2022-08-02T10:01:20;3.30;;;2.80;;
65202;SDS011;51788;45.124;38.966;2022-08-02T10:03:55;7.28;;;3.03;;
65202;SDS011;51788;45.124;38.966;2022-08-02T10:06:25;3.93;;;3.23;;
65202;SDS011;51788;45.124;38.966;2022-08-02T10:08:52;2.80;;;2.60;;
65202;SDS011;51788;45.124;38.966;2022-08-02T10:11:19;3.05;;;2.85;;
65202;SDS011;51788;45.124;38.966;2022-08-02T10:13:47;8.63;;;2.30;;
65202;SDS011;51788;45.124;38.966;2022-08-02T10:16:13;2.80;;;2.60;;
65202;SDS011;51788;45.124;38.966;2022-08-02T10:18:41;3.42;;;2.80;;
65202;SDS011;51788;45.124;38.966;2022-08-02T10:21:12;3.40;;;2.55;;
65202;SDS011;51788;45.124;38.966;2022-08-02T10:23:41;5.00;;;4.50;;
65202;SDS011;51788;45.124;38.966;2022-08-02T10:26:08;5.30;;;2.70;;
65202;SDS011;51788;45.124;38.966;2022-08-02T10:28:39;4.13;;;2.53;;
65202;SDS011;51788;45.124;38.966;2022-08-02T10:31:06;3.78;;;2.47;;
65202;SDS011;51788;45.124;38.966;2022-08-02T10:33:35;5.07;;;2.42;;
65202;SDS011;51788;45.124;38.966;2022-08-02T10:36:03;5.05;;;2.80;;
65202;SDS011;51788;45.124;38.966;2022-08-02T10:38:30;3.30;;;3.00;;
65202;SDS011;51788;45.124;38.966;2022-08-02T10:40:58;3.00;;;2.70;;
65202;SDS011;51788;45.124;38.966;2022-08-02T10:49:01;2.53;;;2.30;;
65202;SDS011;51788;45.124;38.966;2022-08-02T10:54:23;6.55;;;2.42;;
65202;SDS011;51788;45.124;38.966;2022-08-02T10:56:52;3.95;;;2.63;;
65202;SDS011;51788;45.124;38.966;2022-08-02T11:01:54;10.32;;;2.63;;
65202;SDS011;51788;45.124;38.966;2022-08-02T11:07:20;10.70;;;3.20;;
65202;SDS011;51788;45.124;38.966;2022-08-02T11:09:56;6.78;;;2.10;;
65202;SDS011;51788;45.124;38.966;2022-08-02T11:12:23;5.15;;;2.55;;
65202;SDS011;51788;45.124;38.966;2022-08-02T11:14:59;2.72;;;2.40;;
65202;SDS011;51788;45.124;38.966;2022-08-02T11:20:23;128.15;;;8.13;;
65202;SDS011;51788;45.124;38.966;2022-08-02T11:22:51;2.45;;;2.25;;
65202;SDS011;51788;45.124;38.966;2022-08-02T11:27:47;37.53;;;4.80;;
65202;SDS011;51788;45.124;38.966;2022-08-02T11:30:14;34.15;;;4.07;;
65202;SDS011;51788;45.124;38.966;2022-08-02T11:32:41;2.30;;;2.20;;
65202;SDS011;51788;45.124;38.966;2022-08-02T11:35:07;3.75;;;2.30;;
65202;SDS011;51788;45.124;38.966;2022-08-02T11:37:35;3.28;;;2.10;;
65202;SDS011;51788;45.124;38.966;2022-08-02T11:40:09;2.88;;;2.20;;
65202;SDS011;51788;45.124;38.966;2022-08-02T11:42:41;2.35;;;2.10;;
65202;SDS011;51788;45.124;38.966;2022-08-02T11:45:09;4.00;;;2.00;;
65202;SDS011;51788;45.124;38.966;2022-08-02T11:47:44;4.72;;;2.63;;
65202;SDS011;51788;45.124;38.966;2022-08-02T11:50:10;36.72;;;4.15;;
65202;SDS011;51788;45.124;38.966;2022-08-02T11:52:36;3.35;;;2.90;;
65202;SDS011;51788;45.124;38.966;2022-08-02T11:55:05;3.38;;;2.83;;
65202;SDS011;51788;45.124;38.966;2022-08-02T11:57:32;3.22;;;2.60;;
65202;SDS011;51788;45.124;38.966;2022-08-02T11:59:59;19.67;;;3.40;;
65202;SDS011;51788;45.124;38.966;2022-08-02T12:02:29;7.57;;;3.05;;
65202;SDS011;51788;45.124;38.966;2022-08-02T12:05:01;2.70;;;2.50;;
65202;SDS011;51788;45.124;38.966;2022-08-02T12:07:30;36.60;;;4.13;;
65202;SDS011;51788;45.124;38.966;2022-08-02T12:09:58;12.85;;;2.88;;
65202;SDS011;51788;45.124;38.966;2022-08-02T12:12:33;6.57;;;2.60;;
65202;SDS011;51788;45.124;38.966;2022-08-02T12:15:11;6.18;;;2.50;;
65202;SDS011;51788;45.124;38.966;2022-08-02T12:17:37;5.90;;;2.67;;
65202;SDS011;51788;45.124;38.966;2022-08-02T12:20:33;10.75;;;2.85;;
65202;SDS011;51788;45.124;38.966;2022-08-02T12:23:02;8.55;;;2.72;;
65202;SDS011;51788;45.124;38.966;2022-08-02T12:25:29;14.52;;;3.42;;
65202;SDS011;51788;45.124;38.966;2022-08-02T12:28:18;3.03;;;2.70;;
65202;SDS011;51788;45.124;38.966;2022-08-02T12:30:52;7.13;;;2.83;;
65202;SDS011;51788;45.124;38.966;2022-08-02T12:33:18;6.85;;;2.63;;
65202;SDS011;51788;45.124;38.966;2022-08-02T12:35:45;8.38;;;3.10;;
65202;SDS011;51788;45.124;38.966;2022-08-02T12:38:12;9.77;;;2.92;;
65202;SDS011;51788;45.124;38.966;2022-08-02T12:40:38;4.75;;;2.75;;
65202;SDS011;51788;45.124;38.966;2022-08-02T12:43:04;2.58;;;2.38;;
65202;SDS011;51788;45.124;38.966;2022-08-02T12:45:48;9.43;;;2.92;;
65202;SDS011;51788;45.124;38.966;2022-08-02T12:48:30;8.57;;;3.20;;
65202;SDS011;51788;45.124;38.966;2022-08-02T12:56:39;22.75;;;3.38;;
65202;SDS011;51788;45.124;38.966;2022-08-02T12:59:05;5.93;;;2.50;;
65202;SDS011;51788;45.124;38.966;2022-08-02T13:01:31;2.67;;;2.50;;
65202;SDS011;51788;45.124;38.966;2022-08-02T13:03:59;14.50;;;3.13;;
65202;SDS011;51788;45.124;38.966;2022-08-02T13:06:25;6.40;;;2.75;;
65202;SDS011;51788;45.124;38.966;2022-08-02T13:08:51;7.53;;;2.65;;
65202;SDS011;51788;45.124;38.966;2022-08-02T13:11:19;7.50;;;2.80;;
65202;SDS011;51788;45.124;38.966;2022-08-02T13:13:45;5.43;;;3.22;;
65202;SDS011;51788;45.124;38.966;2022-08-02T13:16:12;9.95;;;3.67;;
65202;SDS011;51788;45.124;38.966;2022-08-02T13:18:39;12.88;;;3.25;;
65202;SDS011;51788;45.124;38.966;2022-08-02T13:21:05;26.67;;;3.72;;
65202;SDS011;51788;45.124;38.966;2022-08-02T13:23:33;7.78;;;3.00;;
65202;SDS011;51788;45.124;38.966;2022-08-02T13:26:00;6.78;;;3.03;;
65202;SDS011;51788;45.124;38.966;2022-08-02T13:28:26;2.53;;;2.33;;
65202;SDS011;51788;45.124;38.966;2022-08-02T13:30:52;3.03;;;2.58;;
65202;SDS011;51788;45.124;38.966;2022-08-02T13:33:18;9.30;;;2.67;;
65202;SDS011;51788;45.124;38.966;2022-08-02T13:35:45;4.97;;;2.97;;
65202;SDS011;51788;45.124;38.966;2022-08-02T13:38:12;11.40;;;2.80;;
65202;SDS011;51788;45.124;38.966;2022-08-02T13:40:38;4.90;;;2.70;;
65202;SDS011;51788;45.124;38.966;2022-08-02T13:43:22;5.47;;;2.90;;
65202;SDS011;51788;45.124;38.966;2022-08-02T13:45:48;5.80;;;3.35;;
65202;SDS011;51788;45.124;38.966;2022-08-02T13:48:14;13.70;;;3.60;;
65202;SDS011;51788;45.124;38.966;2022-08-02T13:50:41;27.98;;;4.65;;
65202;SDS011;51788;45.124;38.966;2022-08-02T13:53:07;8.57;;;4.28;;
65202;SDS011;51788;45.124;38.966;2022-08-02T13:55:32;22.50;;;4.35;;
65202;SDS011;51788;45.124;38.966;2022-08-02T13:57:59;17.38;;;4.30;;
65202;SDS011;51788;45.124;38.966;2022-08-02T14:00:26;5.10;;;3.38;;
65202;SDS011;51788;45.124;38.966;2022-08-02T14:02:52;7.50;;;3.45;;
65202;SDS011;51788;45.124;38.966;2022-08-02T14:05:18;4.78;;;3.45;;
65202;SDS011;51788;45.124;38.966;2022-08-02T14:07:44;5.90;;;3.40;;
65202;SDS011;51788;45.124;38.966;2022-08-02T14:10:10;7.60;;;3.95;;
65202;SDS011;51788;45.124;38.966;2022-08-02T14:12:36;5.70;;;4.00;;
65202;SDS011;51788;45.124;38.966;2022-08-02T14:15:02;5.43;;;4.20;;
65202;SDS011;51788;45.124;38.966;2022-08-02T14:17:28;9.98;;;4.10;;
65202;SDS011;51788;45.124;38.966;2022-08-02T14:19:54;5.55;;;3.63;;
65202;SDS011;51788;45.124;38.966;2022-08-02T14:22:20;13.30;;;4.05;;
65202;SDS011;51788;45.124;38.966;2022-08-02T14:24:46;7.32;;;3.58;;
65202;SDS011;51788;45.124;38.966;2022-08-02T14:27:12;9.20;;;4.07;;
65202;SDS011;51788;45.124;38.966;2022-08-02T14:29:39;6.40;;;4.47;;
65202;SDS011;51788;45.124;38.966;2022-08-02T14:32:06;11.07;;;4.10;;
65202;SDS011;51788;45.124;38.966;2022-08-02T14:34:32;7.72;;;3.67;;
65202;SDS011;51788;45.124;38.966;2022-08-02T14:36:58;6.40;;;3.70;;
65202;SDS011;51788;45.124;38.966;2022-08-02T14:39:24;7.70;;;4.60;;
65202;SDS011;51788;45.124;38.966;2022-08-02T14:41:50;11.38;;;4.35;;
65202;SDS011;51788;45.124;38.966;2022-08-02T14:44:16;4.28;;;3.67;;
65202;SDS011;51788;45.124;38.966;2022-08-02T14:46:42;5.50;;;3.45;;
65202;SDS011;51788;45.124;38.966;2022-08-02T14:49:08;7.60;;;4.15;;
65202;SDS011;51788;45.124;38.966;2022-08-02T14:51:35;12.23;;;4.20;;
65202;SDS011;51788;45.124;38.966;2022-08-02T14:54:05;8.75;;;4.03;;
65202;SDS011;51788;45.124;38.966;2022-08-02T14:56:33;14.57;;;4.88;;
65202;SDS011;51788;45.124;38.966;2022-08-02T14:59:00;6.60;;;3.90;;
65202;SDS011;51788;45.124;38.966;2022-08-02T15:01:26;6.88;;;3.80;;
65202;SDS011;51788;45.124;38.966;2022-08-02T15:03:52;12.50;;;4.43;;
65202;SDS011;51788;45.124;38.966;2022-08-02T15:06:18;5.20;;;3.47;;
65202;SDS011;51788;45.124;38.966;2022-08-02T15:08:44;8.75;;;3.53;;
65202;SDS011;51788;45.124;38.966;2022-08-02T15:11:10;6.70;;;3.60;;
65202;SDS011;51788;45.124;38.966;2022-08-02T15:13:36;4.03;;;3.30;;
65202;SDS011;51788;45.124;38.966;2022-08-02T15:16:02;11.00;;;3.97;;
65202;SDS011;51788;45.124;38.966;2022-08-02T15:18:28;3.40;;;2.83;;
65202;SDS011;51788;45.124;38.966;2022-08-02T15:20:54;11.82;;;4.72;;
65202;SDS011;51788;45.124;38.966;2022-08-02T15:23:20;10.63;;;2.70;;
65202;SDS011;51788;45.124;38.966;2022-08-02T15:25:49;6.47;;;3.22;;
65202;SDS011;51788;45.124;38.966;2022-08-02T15:28:15;12.48;;;3.15;;